createdAt,value
2023-02-14T00:00:29.337Z,30.17
2023-02-14T00:02:57.119Z,32.03
2023-02-14T00:05:23.754Z,36.07
2023-02-14T00:07:50.475Z,31.65
2023-02-14T00:10:17.364Z,30.45
2023-02-14T00:12:43.879Z,34.05
2023-02-14T00:15:22.892Z,28.77
2023-02-14T00:17:54.734Z,29.10
2023-02-14T00:20:22.384Z,29.92
2023-02-14T00:22:49.216Z,28.02
2023-02-14T00:25:16.373Z,32.78
2023-02-14T00:27:42.937Z,30.25
2023-02-14T00:30:11.341Z,32.60
2023-02-14T00:32:42.065Z,28.38
2023-02-14T00:35:09.631Z,29.88
2023-02-14T00:37:36.170Z,28.75
2023-02-14T00:40:02.637Z,32.78
2023-02-14T00:42:29.235Z,35.97
2023-02-14T00:44:55.790Z,30.60
2023-02-14T00:47:22.323Z,33.05
2023-02-14T00:49:48.825Z,36.75
2023-02-14T00:52:15.377Z,29.45
2023-02-14T00:54:41.860Z,30.37
2023-02-14T00:57:08.340Z,29.95
2023-02-14T00:59:34.808Z,31.23
2023-02-14T01:02:01.284Z,31.35
2023-02-14T01:04:27.834Z,36.92
2023-02-14T01:06:54.258Z,42.17
2023-02-14T01:09:20.711Z,30.05
2023-02-14T01:11:48.706Z,34.28
2023-02-14T01:14:15.742Z,32.65
2023-02-14T01:16:42.232Z,34.85
2023-02-14T01:19:09.374Z,34.53
2023-02-14T01:21:36.339Z,33.20
2023-02-14T01:24:06.723Z,31.73
2023-02-14T01:26:33.892Z,28.80
2023-02-14T01:29:00.380Z,33.80
2023-02-14T01:31:33.708Z,29.67
2023-02-14T01:34:00.442Z,32.08
2023-02-14T01:36:38.792Z,29.30
2023-02-14T01:39:09.075Z,30.38
2023-02-14T01:41:37.841Z,32.78
2023-02-14T01:44:16.907Z,29.20
2023-02-14T01:46:45.369Z,28.35
2023-02-14T01:49:14.682Z,27.08
2023-02-14T01:51:47.026Z,25.40
2023-02-14T01:54:13.690Z,24.92
2023-02-14T01:56:49.251Z,21.60
2023-02-14T01:59:21.205Z,24.73
2023-02-14T02:01:50.121Z,20.67
2023-02-14T02:04:22.691Z,20.98
2023-02-14T02:06:55.434Z,21.63
2023-02-14T02:09:32.716Z,20.87
2023-02-14T02:11:59.520Z,20.00
2023-02-14T02:14:26.043Z,19.98
2023-02-14T02:17:36.898Z,21.33
2023-02-14T02:20:39.319Z,19.23
2023-02-14T02:23:24.529Z,20.30
2023-02-14T02:26:28.612Z,19.15
2023-02-14T02:29:19.985Z,23.77
2023-02-14T02:31:58.814Z,23.17
2023-02-14T02:34:25.356Z,23.13
2023-02-14T02:37:00.551Z,22.93
2023-02-14T02:39:35.819Z,20.98
2023-02-14T02:42:34.620Z,22.05
2023-02-14T02:45:22.035Z,20.35
2023-02-14T02:48:09.843Z,20.67
2023-02-14T02:51:02.628Z,20.70
2023-02-14T02:53:48.587Z,20.80
2023-02-14T02:56:41.250Z,19.27
2023-02-14T02:59:24.449Z,19.20
2023-02-14T03:01:58.444Z,19.95
2023-02-14T03:04:45.949Z,20.57
2023-02-14T03:07:31.570Z,21.15
2023-02-14T03:10:00.591Z,19.95
2023-02-14T03:12:30.183Z,20.90
2023-02-14T03:15:02.791Z,21.23
2023-02-14T03:17:54.244Z,21.60
2023-02-14T03:20:28.432Z,19.30
2023-02-14T03:23:17.484Z,24.48
2023-02-14T03:26:17.238Z,19.90
2023-02-14T03:29:15.761Z,20.30
2023-02-14T03:31:57.532Z,18.97
2023-02-14T03:34:33.181Z,21.13
2023-02-14T03:37:10.692Z,21.38
2023-02-14T03:39:39.776Z,19.25
2023-02-14T03:42:31.111Z,21.70
2023-02-14T03:45:00.402Z,19.43
2023-02-14T03:47:31.391Z,20.20
2023-02-14T03:50:13.311Z,20.17
2023-02-14T03:52:41.087Z,20.80
2023-02-14T03:55:09.451Z,19.67
2023-02-14T03:57:45.609Z,19.37
2023-02-14T04:00:12.958Z,20.35
2023-02-14T04:02:44.228Z,20.85
2023-02-14T04:05:21.388Z,18.92
2023-02-14T04:07:51.582Z,19.85
2023-02-14T04:10:19.819Z,20.97
2023-02-14T04:12:46.839Z,18.73
2023-02-14T04:15:14.501Z,19.73
2023-02-14T04:18:00.168Z,19.77
2023-02-14T04:20:27.441Z,18.05
2023-02-14T04:22:54.337Z,18.63
2023-02-14T04:25:21.844Z,20.20
2023-02-14T04:27:48.720Z,18.70
2023-02-14T04:30:17.896Z,18.27
2023-02-14T04:32:44.503Z,19.70
2023-02-14T04:35:11.030Z,20.47
2023-02-14T04:37:37.728Z,21.60
2023-02-14T04:40:04.749Z,22.23
2023-02-14T04:42:31.317Z,19.02
2023-02-14T04:44:57.970Z,17.98
2023-02-14T04:47:25.034Z,19.47
2023-02-14T04:49:51.604Z,17.90
2023-02-14T04:52:18.152Z,17.60
2023-02-14T04:54:44.615Z,19.58
2023-02-14T04:57:11.148Z,19.17
2023-02-14T04:59:37.611Z,22.53
2023-02-14T05:02:04.371Z,19.35
2023-02-14T05:04:30.904Z,19.85
2023-02-14T05:06:57.385Z,19.90
2023-02-14T05:09:23.950Z,20.83
2023-02-14T05:11:50.443Z,23.30
2023-02-14T05:14:16.898Z,23.08
2023-02-14T05:16:43.414Z,21.50
2023-02-14T05:19:09.949Z,21.08
2023-02-14T05:21:36.432Z,20.83
2023-02-14T05:24:02.958Z,23.53
2023-02-14T05:26:29.858Z,18.27
2023-02-14T05:28:56.629Z,20.73
2023-02-14T05:31:23.175Z,19.02
2023-02-14T05:33:49.866Z,19.63
2023-02-14T05:36:16.626Z,19.43
2023-02-14T05:38:43.065Z,19.33
2023-02-14T05:41:10.723Z,18.42
2023-02-14T05:43:37.274Z,19.63
2023-02-14T05:46:03.885Z,21.80
2023-02-14T05:48:30.877Z,21.93
2023-02-14T05:50:57.627Z,19.08
2023-02-14T05:53:24.344Z,19.85
2023-02-14T05:55:50.804Z,18.67
2023-02-14T05:58:17.320Z,19.20
2023-02-14T06:00:43.779Z,18.40
2023-02-14T06:03:10.256Z,17.98
2023-02-14T06:05:36.704Z,18.98
2023-02-14T06:08:03.324Z,19.85
2023-02-14T06:10:29.923Z,18.15
2023-02-14T06:12:56.759Z,15.93
2023-02-14T06:15:23.571Z,18.20
2023-02-14T06:17:57.631Z,17.10
2023-02-14T06:20:25.344Z,18.83
2023-02-14T06:22:53.292Z,16.80
2023-02-14T06:25:20.466Z,21.67
2023-02-14T06:27:49.286Z,14.85
2023-02-14T06:30:17.202Z,14.75
2023-02-14T06:32:43.746Z,15.68
2023-02-14T06:35:10.305Z,19.38
2023-02-14T06:37:38.611Z,15.93
2023-02-14T06:40:05.809Z,18.30
2023-02-14T06:42:32.297Z,16.58
2023-02-14T06:44:58.867Z,17.52
2023-02-14T06:47:25.388Z,17.58
2023-02-14T06:49:51.902Z,19.33
2023-02-14T06:52:18.443Z,16.25
2023-02-14T06:54:44.948Z,18.63
2023-02-14T06:57:11.502Z,18.77
2023-02-14T06:59:38.043Z,19.05
2023-02-14T07:02:04.513Z,17.90
2023-02-14T07:04:31.040Z,17.17
2023-02-14T07:06:58.275Z,20.20
2023-02-14T07:09:24.778Z,19.95
2023-02-14T07:11:51.477Z,18.38
2023-02-14T07:14:17.965Z,20.13
2023-02-14T07:16:44.410Z,20.77
2023-02-14T07:19:11.037Z,23.85
2023-02-14T07:21:37.592Z,19.42
2023-02-14T07:24:04.147Z,17.23
2023-02-14T07:26:30.642Z,19.43
2023-02-14T07:28:57.170Z,22.15
2023-02-14T07:31:23.899Z,19.63
2023-02-14T07:33:51.923Z,26.95
2023-02-14T07:36:18.659Z,21.98
2023-02-14T07:38:45.267Z,23.07
2023-02-14T07:41:11.744Z,27.05
2023-02-14T07:43:39.622Z,23.15
2023-02-14T07:46:06.783Z,22.55
2023-02-14T07:48:34.479Z,21.67
2023-02-14T07:51:01.660Z,21.97
2023-02-14T07:53:28.431Z,23.17
2023-02-14T07:55:54.951Z,24.33
2023-02-14T07:58:21.415Z,22.52
2023-02-14T08:00:47.931Z,22.90
2023-02-14T08:03:14.907Z,27.10
2023-02-14T08:05:42.117Z,29.67
2023-02-14T08:08:08.911Z,23.35
2023-02-14T08:10:35.417Z,26.30
2023-02-14T08:13:02.207Z,24.73
2023-02-14T08:15:52.554Z,26.53
2023-02-14T08:18:21.157Z,25.40
2023-02-14T08:20:51.085Z,25.98
2023-02-14T08:23:18.761Z,24.08
2023-02-14T08:25:46.179Z,23.85
2023-02-14T08:28:13.793Z,26.70
2023-02-14T08:30:40.983Z,26.67
2023-02-14T08:33:07.521Z,25.70
2023-02-14T08:35:34.680Z,25.10
2023-02-14T08:38:01.251Z,25.98
2023-02-14T08:40:28.638Z,26.63
2023-02-14T08:42:55.120Z,25.83
2023-02-14T08:45:21.886Z,25.17
2023-02-14T08:47:48.383Z,30.55
2023-02-14T08:50:17.366Z,30.95
2023-02-14T08:52:44.454Z,31.20
2023-02-14T08:55:12.639Z,30.90
2023-02-14T08:57:40.082Z,29.92
2023-02-14T09:00:07.571Z,30.30
2023-02-14T09:02:34.491Z,28.85
2023-02-14T09:05:01.178Z,30.53
2023-02-14T09:07:27.795Z,27.63
2023-02-14T09:09:54.405Z,30.85
2023-02-14T09:12:20.977Z,26.60
2023-02-14T09:14:47.452Z,27.85
2023-02-14T09:17:15.069Z,28.30
2023-02-14T09:19:42.451Z,29.65
2023-02-14T09:22:10.301Z,28.42
2023-02-14T09:24:38.410Z,27.63
2023-02-14T09:27:05.916Z,27.13
2023-02-14T09:29:32.524Z,28.80
2023-02-14T09:32:01.211Z,28.25
2023-02-14T09:34:29.356Z,27.92
2023-02-14T09:36:55.865Z,27.48
2023-02-14T09:39:22.542Z,32.60
2023-02-14T09:42:13.564Z,30.77
2023-02-14T09:44:41.557Z,36.20
2023-02-14T09:47:40.236Z,27.75
2023-02-14T09:50:13.892Z,30.60
2023-02-14T09:52:40.472Z,32.33
2023-02-14T09:55:13.435Z,31.00
2023-02-14T09:58:06.044Z,34.55
2023-02-14T10:00:38.591Z,29.00
2023-02-14T10:03:40.416Z,31.40
2023-02-14T10:06:15.940Z,30.95
2023-02-14T10:09:09.360Z,29.53
2023-02-14T10:11:36.332Z,31.77
2023-02-14T10:14:16.772Z,32.28
2023-02-14T10:16:49.144Z,30.65
2023-02-14T10:19:22.422Z,39.30
2023-02-14T10:21:56.977Z,27.57
2023-02-14T10:24:23.440Z,31.33
2023-02-14T10:26:50.903Z,32.75
2023-02-14T10:29:19.659Z,31.15
2023-02-14T10:31:57.664Z,30.33
2023-02-14T10:34:35.547Z,35.87
2023-02-14T10:37:34.734Z,31.45
2023-02-14T10:40:17.515Z,34.33
2023-02-14T10:43:21.834Z,30.23
2023-02-14T10:46:13.496Z,31.60
2023-02-14T10:48:52.092Z,32.07
2023-02-14T10:51:33.513Z,30.70
2023-02-14T10:54:18.660Z,33.58
2023-02-14T10:56:51.175Z,33.40
2023-02-14T10:59:26.982Z,30.23
2023-02-14T11:01:55.296Z,35.03
2023-02-14T11:04:24.860Z,31.23
2023-02-14T11:06:52.659Z,33.33
2023-02-14T11:09:20.388Z,31.55
2023-02-14T11:11:59.384Z,32.97
2023-02-14T11:14:28.219Z,36.97
2023-02-14T11:16:55.835Z,28.50
2023-02-14T11:19:28.379Z,31.27
2023-02-14T11:21:57.658Z,30.42
2023-02-14T11:24:36.082Z,33.00
2023-02-14T11:27:17.238Z,27.10
2023-02-14T11:29:48.075Z,35.97
2023-02-14T11:32:22.670Z,27.80
2023-02-14T11:35:19.611Z,31.35
2023-02-14T11:37:50.988Z,27.58
2023-02-14T11:40:43.587Z,31.80
2023-02-14T11:43:14.560Z,35.80
2023-02-14T11:45:46.195Z,34.20
2023-02-14T11:48:31.543Z,30.60
2023-02-14T11:51:15.014Z,34.47
2023-02-14T11:53:45.022Z,30.30
2023-02-14T11:56:12.714Z,30.27
2023-02-14T11:58:46.244Z,29.75
2023-02-14T12:01:22.025Z,33.88
2023-02-14T12:03:49.646Z,29.02
2023-02-14T12:06:28.575Z,34.17
2023-02-14T12:09:11.729Z,32.75
2023-02-14T12:11:38.790Z,29.63
2023-02-14T12:14:05.849Z,28.73
2023-02-14T12:16:47.405Z,30.30
2023-02-14T12:19:20.007Z,29.20
2023-02-14T12:22:03.434Z,30.33
2023-02-14T12:24:35.161Z,28.33
2023-02-14T12:27:21.073Z,30.92
2023-02-14T12:29:54.433Z,34.45
2023-02-14T12:32:29.957Z,30.17
2023-02-14T12:35:06.543Z,27.83
2023-02-14T12:38:04.302Z,29.98
2023-02-14T12:41:05.852Z,26.40
2023-02-14T12:43:48.021Z,27.73
2023-02-14T12:49:00.929Z,30.27
2023-02-14T12:51:36.178Z,30.92
2023-02-14T12:54:08.360Z,40.15
2023-02-14T12:56:56.124Z,27.42
2023-02-14T12:59:34.135Z,25.63
2023-02-14T13:02:22.791Z,31.10
2023-02-14T13:04:52.254Z,28.30
2023-02-14T13:07:54.788Z,26.00
2023-02-14T13:10:30.566Z,33.65
2023-02-14T13:13:31.308Z,24.73
2023-02-14T13:15:58.415Z,25.67
2023-02-14T13:19:05.411Z,22.50
2023-02-14T13:21:37.101Z,28.88
2023-02-14T13:24:20.492Z,22.58
2023-02-14T13:26:53.713Z,26.23
2023-02-14T13:29:27.460Z,25.13
2023-02-14T13:31:58.734Z,23.27
2023-02-14T13:34:32.818Z,24.92
2023-02-14T13:37:02.488Z,26.17
2023-02-14T13:39:37.943Z,26.37
2023-02-14T13:42:06.388Z,26.85
2023-02-14T13:44:38.694Z,26.20
2023-02-14T13:47:07.693Z,26.73
2023-02-14T13:49:40.616Z,24.38
2023-02-14T13:52:07.176Z,23.57
2023-02-14T13:54:47.090Z,25.67
2023-02-14T13:57:28.133Z,25.70
2023-02-14T14:00:16.423Z,26.23
2023-02-14T14:03:03.826Z,23.50
2023-02-14T14:05:30.434Z,24.90
2023-02-14T14:08:16.808Z,23.20
2023-02-14T14:10:49.000Z,21.70
2023-02-14T14:13:40.329Z,21.10
2023-02-14T14:16:27.928Z,25.10
2023-02-14T14:19:09.528Z,23.40
2023-02-14T14:21:44.609Z,20.85
2023-02-14T14:24:24.202Z,30.63
2023-02-14T14:27:03.459Z,19.98
2023-02-14T14:29:36.843Z,20.13
2023-02-14T14:32:10.333Z,24.17
2023-02-14T14:34:37.352Z,23.98
2023-02-14T14:37:16.036Z,23.45
2023-02-14T14:39:42.590Z,21.17
2023-02-14T14:42:18.396Z,24.23
2023-02-14T14:45:04.324Z,21.27
2023-02-14T14:47:45.454Z,22.90
2023-02-14T14:50:18.726Z,20.20
2023-02-14T14:52:51.376Z,23.58
2023-02-14T14:55:39.446Z,19.02
2023-02-14T14:58:27.424Z,20.23
2023-02-14T15:00:53.899Z,21.67
2023-02-14T15:03:25.341Z,18.45
2023-02-14T15:06:01.994Z,22.20
2023-02-14T15:08:36.626Z,20.23
2023-02-14T15:11:08.118Z,19.73
2023-02-14T15:13:54.950Z,20.48
2023-02-14T15:16:40.602Z,18.73
2023-02-14T15:19:10.630Z,17.27
2023-02-14T15:21:40.269Z,19.85
2023-02-14T15:24:13.252Z,19.47
2023-02-14T15:26:42.706Z,19.98
2023-02-14T15:29:22.411Z,21.25
2023-02-14T15:31:49.925Z,18.83
2023-02-14T15:34:23.623Z,19.38
2023-02-14T15:36:56.580Z,21.00
2023-02-14T15:39:30.019Z,20.65
2023-02-14T15:41:56.563Z,24.88
2023-02-14T15:44:25.330Z,19.23
2023-02-14T15:46:59.720Z,22.05
2023-02-14T15:49:37.492Z,21.17
2023-02-14T15:52:06.316Z,21.42
2023-02-14T15:54:39.285Z,21.73
2023-02-14T15:57:16.515Z,22.30
2023-02-14T15:59:43.282Z,20.05
2023-02-14T16:02:37.770Z,21.73
2023-02-14T16:05:17.720Z,23.15
2023-02-14T16:08:04.049Z,20.90
2023-02-14T16:10:35.641Z,23.67
2023-02-14T16:13:06.585Z,21.92
2023-02-14T16:15:37.799Z,25.17
2023-02-14T16:18:18.111Z,23.88
2023-02-14T16:20:48.899Z,24.77
2023-02-14T16:23:27.258Z,24.75
2023-02-14T16:25:57.224Z,26.17
2023-02-14T16:28:27.845Z,24.73
2023-02-14T16:30:56.871Z,27.65
2023-02-14T16:33:26.617Z,25.77
2023-02-14T16:35:54.534Z,24.85
2023-02-14T16:38:21.824Z,25.80
2023-02-14T16:40:51.608Z,27.97
2023-02-14T16:43:20.231Z,28.30
2023-02-14T16:45:47.774Z,28.48
2023-02-14T16:48:15.918Z,30.33
2023-02-14T16:50:43.360Z,25.58
2023-02-14T16:53:28.856Z,26.03
2023-02-14T16:55:57.260Z,26.48
2023-02-14T16:58:29.243Z,26.65
2023-02-14T17:00:58.590Z,27.67
2023-02-14T17:03:25.529Z,28.80
2023-02-14T17:05:52.618Z,28.23
2023-02-14T17:08:19.186Z,34.60
2023-02-14T17:10:48.586Z,32.90
2023-02-14T17:13:19.842Z,26.73
2023-02-14T17:15:46.772Z,31.83
2023-02-14T17:18:17.747Z,31.47
2023-02-14T17:20:44.260Z,30.95
2023-02-14T17:23:10.776Z,33.70
2023-02-14T17:25:37.427Z,35.90
2023-02-14T17:28:04.194Z,35.47
2023-02-14T17:30:30.993Z,45.13
2023-02-14T17:32:57.596Z,44.47
2023-02-14T17:35:24.189Z,49.78
2023-02-14T17:37:50.740Z,47.58
2023-02-14T17:40:17.307Z,40.80
2023-02-14T17:42:43.840Z,30.47
2023-02-14T17:45:11.768Z,35.78
2023-02-14T17:47:40.504Z,37.45
2023-02-14T17:50:07.759Z,43.08
2023-02-14T17:52:34.435Z,49.60
2023-02-14T17:55:01.023Z,76.50
2023-02-14T17:57:27.499Z,81.38
2023-02-14T17:59:54.025Z,71.85
2023-02-14T18:02:20.588Z,64.15
2023-02-14T18:04:48.397Z,58.05
2023-02-14T18:07:14.904Z,49.63
2023-02-14T18:09:41.497Z,53.70
2023-02-14T18:12:14.671Z,54.08
2023-02-14T18:14:41.815Z,47.40
2023-02-14T18:17:08.457Z,45.92
2023-02-14T18:19:34.966Z,50.60
2023-02-14T18:22:01.621Z,55.97
2023-02-14T18:24:28.149Z,58.92
2023-02-14T18:26:55.423Z,60.22
2023-02-14T18:29:22.686Z,69.13
2023-02-14T18:31:49.614Z,68.77
2023-02-14T18:34:16.188Z,71.75
2023-02-14T18:36:42.708Z,73.07
2023-02-14T18:39:09.764Z,93.13
2023-02-14T18:41:36.918Z,69.43
2023-02-14T18:44:03.630Z,77.33
2023-02-14T18:46:33.157Z,88.18
2023-02-14T18:48:59.743Z,106.20
2023-02-14T18:51:29.655Z,92.85
2023-02-14T18:53:58.999Z,68.80
2023-02-14T18:56:28.944Z,54.17
2023-02-14T18:59:00.983Z,45.85
2023-02-14T19:01:34.371Z,57.38
2023-02-14T19:04:01.320Z,91.80
2023-02-14T19:06:30.472Z,92.53
2023-02-14T19:08:58.074Z,90.13
2023-02-14T19:11:28.055Z,86.20
2023-02-14T19:13:57.717Z,71.93
2023-02-14T19:16:34.228Z,68.95
2023-02-14T19:19:02.697Z,71.38
2023-02-14T19:21:33.607Z,61.00
2023-02-14T19:24:00.999Z,46.10
2023-02-14T19:26:32.890Z,46.03
2023-02-14T19:29:02.247Z,47.10
2023-02-14T19:31:29.434Z,47.55
2023-02-14T19:33:56.613Z,47.43
2023-02-14T19:36:23.966Z,55.08
2023-02-14T19:38:52.766Z,62.95
2023-02-14T19:41:21.655Z,66.90
2023-02-14T19:43:49.059Z,60.05
2023-02-14T19:46:17.936Z,61.40
2023-02-14T19:48:45.219Z,55.92
2023-02-14T19:51:17.226Z,53.75
2023-02-14T19:53:43.987Z,53.58
2023-02-14T19:56:11.103Z,53.38
2023-02-14T19:58:37.731Z,51.43
2023-02-14T20:01:05.791Z,50.53
2023-02-14T20:03:32.763Z,49.35
2023-02-14T20:05:59.216Z,41.15
2023-02-14T20:08:25.675Z,42.25
2023-02-14T20:10:52.179Z,36.60
2023-02-14T20:13:18.676Z,51.00
2023-02-14T20:15:45.626Z,45.90
2023-02-14T20:18:12.207Z,51.85
2023-02-14T20:20:57.391Z,43.92
2023-02-14T20:23:23.912Z,45.33
2023-02-14T20:25:50.429Z,50.42
2023-02-14T20:28:16.863Z,50.63
2023-02-14T20:30:43.422Z,47.58
2023-02-14T20:33:10.016Z,42.47
2023-02-14T20:35:40.395Z,46.27
2023-02-14T20:38:07.726Z,46.45
2023-02-14T20:40:39.203Z,43.15
2023-02-14T20:43:06.036Z,48.28
2023-02-14T20:45:33.017Z,44.45
2023-02-14T20:48:04.001Z,43.97
2023-02-14T20:50:31.213Z,44.97
2023-02-14T20:52:58.311Z,41.90
2023-02-14T20:55:27.118Z,47.95
2023-02-14T20:57:54.009Z,45.38
2023-02-14T21:00:20.614Z,34.90
2023-02-14T21:02:47.119Z,38.35
2023-02-14T21:05:18.306Z,39.25
2023-02-14T21:07:44.797Z,37.38
2023-02-14T21:10:11.328Z,42.30
2023-02-14T21:12:38.652Z,41.47
2023-02-14T21:15:06.919Z,51.15
2023-02-14T21:17:33.882Z,47.13
2023-02-14T21:20:00.394Z,53.90
2023-02-14T21:22:26.910Z,58.78
2023-02-14T21:24:53.642Z,63.37
2023-02-14T21:27:20.112Z,61.83
2023-02-14T21:29:46.620Z,70.05
2023-02-14T21:32:13.283Z,79.88
2023-02-14T21:34:39.853Z,79.43
2023-02-14T21:37:06.438Z,70.10
2023-02-14T21:39:35.722Z,81.18
2023-02-14T21:42:02.426Z,70.45
2023-02-14T21:44:47.419Z,60.63
2023-02-14T21:47:14.241Z,53.30
2023-02-14T21:49:59.238Z,56.10
2023-02-14T21:52:25.731Z,46.78
2023-02-14T21:54:52.486Z,47.58
2023-02-14T21:57:19.057Z,44.38
2023-02-14T21:59:45.568Z,45.58
2023-02-14T22:02:12.448Z,46.20
2023-02-14T22:04:39.008Z,48.03
2023-02-14T22:07:05.816Z,47.70
2023-02-14T22:09:32.295Z,42.38
2023-02-14T22:11:58.806Z,41.53
2023-02-14T22:14:25.445Z,41.87
2023-02-14T22:16:51.985Z,44.45
2023-02-14T22:19:18.480Z,47.85
2023-02-14T22:21:45.235Z,49.42
2023-02-14T22:24:12.641Z,46.65
2023-02-14T22:26:40.852Z,43.50
2023-02-14T22:29:10.381Z,45.38
2023-02-14T22:31:42.713Z,43.25
2023-02-14T22:34:12.335Z,40.83
2023-02-14T22:36:39.200Z,35.83
2023-02-14T22:39:06.428Z,40.40
2023-02-14T22:41:37.719Z,44.88
2023-02-14T22:44:05.835Z,47.55
2023-02-14T22:46:33.128Z,48.33
2023-02-14T22:48:59.608Z,51.67
2023-02-14T22:51:35.356Z,47.23
2023-02-14T22:54:14.583Z,46.53
2023-02-14T22:56:49.169Z,39.95
2023-02-14T22:59:20.718Z,45.97
2023-02-14T23:01:48.980Z,39.63
2023-02-14T23:04:17.267Z,44.23
2023-02-14T23:06:44.231Z,43.08
2023-02-14T23:09:12.202Z,40.42
2023-02-14T23:11:41.031Z,41.50
2023-02-14T23:14:26.540Z,38.80
2023-02-14T23:17:11.302Z,35.07
2023-02-14T23:19:56.285Z,37.13
2023-02-14T23:22:26.761Z,38.45
2023-02-14T23:24:55.446Z,33.22
2023-02-14T23:27:24.244Z,36.95
2023-02-14T23:29:50.744Z,40.10
2023-02-14T23:32:17.397Z,36.78
2023-02-14T23:34:44.977Z,41.47
2023-02-14T23:37:13.563Z,33.42
2023-02-14T23:39:40.811Z,37.17
2023-02-14T23:42:10.460Z,39.47
2023-02-14T23:44:37.286Z,36.55
2023-02-14T23:47:06.768Z,39.10
2023-02-14T23:49:35.393Z,35.83
2023-02-14T23:52:03.382Z,38.90
2023-02-14T23:54:29.914Z,35.80
2023-02-14T23:56:57.516Z,30.35
2023-02-14T23:59:24.425Z,41.60
